sensor_id;sensor_type;location;lat;lon;timestamp;P1;durP1;ratioP1;P2;durP2;ratioP2
27225;SDS011;14732;51.074;3.788;2022-11-20T00:00:53;73.25;;;28.35;;
27225;SDS011;14732;51.074;3.788;2022-11-20T00:03:19;73.55;;;29.05;;
27225;SDS011;14732;51.074;3.788;2022-11-20T00:05:44;73.60;;;28.92;;
27225;SDS011;14732;51.074;3.788;2022-11-20T00:08:10;74.15;;;28.58;;
27225;SDS011;14732;51.074;3.788;2022-11-20T00:10:36;72.65;;;29.15;;
27225;SDS011;14732;51.074;3.788;2022-11-20T00:13:02;70.78;;;26.55;;
27225;SDS011;14732;51.074;3.788;2022-11-20T00:15:28;66.60;;;27.30;;
27225;SDS011;14732;51.074;3.788;2022-11-20T00:17:54;74.15;;;29.20;;
27225;SDS011;14732;51.074;3.788;2022-11-20T00:20:20;82.88;;;29.80;;
27225;SDS011;14732;51.074;3.788;2022-11-20T00:22:45;79.30;;;29.25;;
27225;SDS011;14732;51.074;3.788;2022-11-20T00:25:11;78.65;;;28.90;;
27225;SDS011;14732;51.074;3.788;2022-11-20T00:27:37;71.22;;;28.30;;
27225;SDS011;14732;51.074;3.788;2022-11-20T00:30:03;65.65;;;26.95;;
27225;SDS011;14732;51.074;3.788;2022-11-20T00:32:29;76.28;;;28.30;;
27225;SDS011;14732;51.074;3.788;2022-11-20T00:34:55;71.25;;;28.45;;
27225;SDS011;14732;51.074;3.788;2022-11-20T00:37:21;71.03;;;27.65;;
27225;SDS011;14732;51.074;3.788;2022-11-20T00:39:46;67.47;;;26.67;;
27225;SDS011;14732;51.074;3.788;2022-11-20T00:42:12;72.18;;;28.92;;
27225;SDS011;14732;51.074;3.788;2022-11-20T00:44:38;70.68;;;27.83;;
27225;SDS011;14732;51.074;3.788;2022-11-20T00:47:03;67.18;;;27.67;;
27225;SDS011;14732;51.074;3.788;2022-11-20T00:49:29;73.57;;;28.08;;
27225;SDS011;14732;51.074;3.788;2022-11-20T00:51:55;70.75;;;28.73;;
27225;SDS011;14732;51.074;3.788;2022-11-20T00:54:20;63.55;;;27.17;;
27225;SDS011;14732;51.074;3.788;2022-11-20T00:56:46;65.95;;;26.88;;
27225;SDS011;14732;51.074;3.788;2022-11-20T00:59:12;72.80;;;28.02;;
27225;SDS011;14732;51.074;3.788;2022-11-20T01:01:37;70.25;;;28.50;;
27225;SDS011;14732;51.074;3.788;2022-11-20T01:04:03;77.70;;;28.65;;
27225;SDS011;14732;51.074;3.788;2022-11-20T01:06:34;74.28;;;28.70;;
27225;SDS011;14732;51.074;3.788;2022-11-20T01:09:02;70.15;;;28.70;;
27225;SDS011;14732;51.074;3.788;2022-11-20T01:11:31;71.07;;;28.75;;
27225;SDS011;14732;51.074;3.788;2022-11-20T01:14:00;75.97;;;29.15;;
27225;SDS011;14732;51.074;3.788;2022-11-20T01:16:31;63.45;;;26.75;;
27225;SDS011;14732;51.074;3.788;2022-11-20T01:19:03;76.75;;;29.48;;
27225;SDS011;14732;51.074;3.788;2022-11-20T01:21:37;72.20;;;28.30;;
27225;SDS011;14732;51.074;3.788;2022-11-20T01:24:05;70.85;;;29.15;;
27225;SDS011;14732;51.074;3.788;2022-11-20T01:26:33;70.40;;;28.33;;
27225;SDS011;14732;51.074;3.788;2022-11-20T01:29:00;71.68;;;27.88;;
27225;SDS011;14732;51.074;3.788;2022-11-20T01:31:28;74.00;;;29.40;;
27225;SDS011;14732;51.074;3.788;2022-11-20T01:33:56;71.97;;;28.95;;
27225;SDS011;14732;51.074;3.788;2022-11-20T01:36:25;74.32;;;29.42;;
27225;SDS011;14732;51.074;3.788;2022-11-20T01:38:53;79.68;;;30.52;;
27225;SDS011;14732;51.074;3.788;2022-11-20T01:41:20;83.15;;;30.00;;
27225;SDS011;14732;51.074;3.788;2022-11-20T01:44:05;76.78;;;28.05;;
27225;SDS011;14732;51.074;3.788;2022-11-20T01:50:09;74.00;;;28.92;;
27225;SDS011;14732;51.074;3.788;2022-11-20T01:52:26;74.45;;;29.42;;
27225;SDS011;14732;51.074;3.788;2022-11-20T01:55:09;70.32;;;29.15;;
27225;SDS011;14732;51.074;3.788;2022-11-20T01:57:38;79.65;;;29.85;;
27225;SDS011;14732;51.074;3.788;2022-11-20T02:00:06;80.78;;;29.88;;
27225;SDS011;14732;51.074;3.788;2022-11-20T02:02:35;74.38;;;29.60;;
27225;SDS011;14732;51.074;3.788;2022-11-20T02:05:04;80.32;;;28.95;;
27225;SDS011;14732;51.074;3.788;2022-11-20T02:07:47;79.60;;;28.92;;
27225;SDS011;14732;51.074;3.788;2022-11-20T02:10:14;70.30;;;28.30;;
27225;SDS011;14732;51.074;3.788;2022-11-20T02:12:40;79.72;;;30.55;;
27225;SDS011;14732;51.074;3.788;2022-11-20T02:15:24;79.43;;;29.00;;
27225;SDS011;14732;51.074;3.788;2022-11-20T02:17:50;69.55;;;27.95;;
27225;SDS011;14732;51.074;3.788;2022-11-20T02:20:16;76.85;;;29.15;;
27225;SDS011;14732;51.074;3.788;2022-11-20T02:22:46;76.38;;;29.45;;
27225;SDS011;14732;51.074;3.788;2022-11-20T02:25:28;75.97;;;30.65;;
27225;SDS011;14732;51.074;3.788;2022-11-20T02:27:56;75.22;;;30.15;;
27225;SDS011;14732;51.074;3.788;2022-11-20T02:30:21;72.88;;;29.55;;
27225;SDS011;14732;51.074;3.788;2022-11-20T02:32:47;82.20;;;29.23;;
27225;SDS011;14732;51.074;3.788;2022-11-20T02:37:44;73.70;;;28.50;;
27225;SDS011;14732;51.074;3.788;2022-11-20T02:40:14;65.00;;;27.85;;
27225;SDS011;14732;51.074;3.788;2022-11-20T02:42:40;78.00;;;28.67;;
27225;SDS011;14732;51.074;3.788;2022-11-20T02:45:06;72.88;;;30.08;;
27225;SDS011;14732;51.074;3.788;2022-11-20T02:47:32;77.22;;;29.75;;
27225;SDS011;14732;51.074;3.788;2022-11-20T02:49:58;69.53;;;27.60;;
27225;SDS011;14732;51.074;3.788;2022-11-20T02:52:24;75.05;;;29.05;;
27225;SDS011;14732;51.074;3.788;2022-11-20T02:54:50;78.10;;;29.15;;
27225;SDS011;14732;51.074;3.788;2022-11-20T02:57:16;69.28;;;29.35;;
27225;SDS011;14732;51.074;3.788;2022-11-20T02:59:42;75.63;;;28.33;;
27225;SDS011;14732;51.074;3.788;2022-11-20T03:02:07;76.93;;;29.70;;
27225;SDS011;14732;51.074;3.788;2022-11-20T03:04:33;78.50;;;28.50;;
27225;SDS011;14732;51.074;3.788;2022-11-20T03:06:58;76.93;;;28.77;;
27225;SDS011;14732;51.074;3.788;2022-11-20T03:09:24;69.57;;;28.55;;
27225;SDS011;14732;51.074;3.788;2022-11-20T03:11:50;73.20;;;28.45;;
27225;SDS011;14732;51.074;3.788;2022-11-20T03:14:16;74.55;;;28.05;;
27225;SDS011;14732;51.074;3.788;2022-11-20T03:16:42;80.30;;;29.75;;
27225;SDS011;14732;51.074;3.788;2022-11-20T03:19:07;80.20;;;30.27;;
27225;SDS011;14732;51.074;3.788;2022-11-20T03:21:33;84.03;;;29.73;;
27225;SDS011;14732;51.074;3.788;2022-11-20T03:23:59;81.63;;;30.42;;
27225;SDS011;14732;51.074;3.788;2022-11-20T03:26:26;71.57;;;29.20;;
27225;SDS011;14732;51.074;3.788;2022-11-20T03:28:53;80.75;;;28.88;;
27225;SDS011;14732;51.074;3.788;2022-11-20T03:31:24;77.68;;;29.10;;
27225;SDS011;14732;51.074;3.788;2022-11-20T03:33:55;82.38;;;29.73;;
27225;SDS011;14732;51.074;3.788;2022-11-20T03:36:22;79.50;;;29.27;;
27225;SDS011;14732;51.074;3.788;2022-11-20T03:38:48;72.03;;;29.10;;
27225;SDS011;14732;51.074;3.788;2022-11-20T03:41:16;84.40;;;30.23;;
27225;SDS011;14732;51.074;3.788;2022-11-20T03:43:48;83.03;;;29.70;;
27225;SDS011;14732;51.074;3.788;2022-11-20T03:46:14;82.97;;;30.23;;
27225;SDS011;14732;51.074;3.788;2022-11-20T03:48:39;76.60;;;29.00;;
27225;SDS011;14732;51.074;3.788;2022-11-20T03:51:09;73.85;;;28.70;;
27225;SDS011;14732;51.074;3.788;2022-11-20T03:53:37;77.63;;;28.30;;
27225;SDS011;14732;51.074;3.788;2022-11-20T03:56:03;69.95;;;27.67;;
27225;SDS011;14732;51.074;3.788;2022-11-20T03:58:30;72.45;;;28.92;;
27225;SDS011;14732;51.074;3.788;2022-11-20T04:00:56;71.70;;;28.83;;
27225;SDS011;14732;51.074;3.788;2022-11-20T04:03:21;78.03;;;28.67;;
27225;SDS011;14732;51.074;3.788;2022-11-20T04:05:47;71.75;;;28.65;;
27225;SDS011;14732;51.074;3.788;2022-11-20T04:08:12;80.38;;;28.58;;
27225;SDS011;14732;51.074;3.788;2022-11-20T04:10:38;77.03;;;29.35;;
27225;SDS011;14732;51.074;3.788;2022-11-20T04:13:04;73.63;;;28.73;;
27225;SDS011;14732;51.074;3.788;2022-11-20T04:15:29;77.45;;;30.10;;
27225;SDS011;14732;51.074;3.788;2022-11-20T04:17:55;79.38;;;30.90;;
27225;SDS011;14732;51.074;3.788;2022-11-20T04:20:21;79.53;;;29.30;;
27225;SDS011;14732;51.074;3.788;2022-11-20T04:22:46;78.25;;;28.80;;
27225;SDS011;14732;51.074;3.788;2022-11-20T04:25:12;79.18;;;29.50;;
27225;SDS011;14732;51.074;3.788;2022-11-20T04:27:37;73.70;;;28.85;;
27225;SDS011;14732;51.074;3.788;2022-11-20T04:30:03;77.47;;;29.15;;
27225;SDS011;14732;51.074;3.788;2022-11-20T04:32:29;74.93;;;28.55;;
27225;SDS011;14732;51.074;3.788;2022-11-20T04:34:55;71.47;;;27.75;;
27225;SDS011;14732;51.074;3.788;2022-11-20T04:37:21;68.60;;;26.88;;
27225;SDS011;14732;51.074;3.788;2022-11-20T04:39:46;74.72;;;28.80;;
27225;SDS011;14732;51.074;3.788;2022-11-20T04:42:12;69.20;;;26.75;;
27225;SDS011;14732;51.074;3.788;2022-11-20T04:44:53;73.82;;;28.40;;
27225;SDS011;14732;51.074;3.788;2022-11-20T04:47:19;74.68;;;28.40;;
27225;SDS011;14732;51.074;3.788;2022-11-20T04:49:44;76.43;;;27.13;;
27225;SDS011;14732;51.074;3.788;2022-11-20T04:52:10;75.68;;;28.33;;
27225;SDS011;14732;51.074;3.788;2022-11-20T04:54:35;64.78;;;27.45;;
27225;SDS011;14732;51.074;3.788;2022-11-20T04:57:01;69.53;;;27.58;;
27225;SDS011;14732;51.074;3.788;2022-11-20T04:59:27;62.50;;;26.40;;
27225;SDS011;14732;51.074;3.788;2022-11-20T05:01:52;65.32;;;26.75;;
27225;SDS011;14732;51.074;3.788;2022-11-20T05:04:18;70.88;;;26.42;;
27225;SDS011;14732;51.074;3.788;2022-11-20T05:06:44;79.88;;;27.85;;
27225;SDS011;14732;51.074;3.788;2022-11-20T05:09:10;70.70;;;25.95;;
27225;SDS011;14732;51.074;3.788;2022-11-20T05:11:37;64.13;;;25.83;;
27225;SDS011;14732;51.074;3.788;2022-11-20T05:14:02;62.42;;;26.15;;
27225;SDS011;14732;51.074;3.788;2022-11-20T05:16:28;71.75;;;27.65;;
27225;SDS011;14732;51.074;3.788;2022-11-20T05:18:54;68.22;;;27.20;;
27225;SDS011;14732;51.074;3.788;2022-11-20T05:21:20;68.22;;;26.35;;
27225;SDS011;14732;51.074;3.788;2022-11-20T05:23:47;65.35;;;26.05;;
27225;SDS011;14732;51.074;3.788;2022-11-20T05:26:14;64.43;;;26.05;;
27225;SDS011;14732;51.074;3.788;2022-11-20T05:28:42;65.25;;;26.65;;
27225;SDS011;14732;51.074;3.788;2022-11-20T05:31:09;66.00;;;26.13;;
27225;SDS011;14732;51.074;3.788;2022-11-20T05:33:37;71.85;;;27.27;;
27225;SDS011;14732;51.074;3.788;2022-11-20T05:36:05;66.83;;;26.20;;
27225;SDS011;14732;51.074;3.788;2022-11-20T05:38:31;69.75;;;25.55;;
27225;SDS011;14732;51.074;3.788;2022-11-20T05:41:04;64.10;;;25.75;;
27225;SDS011;14732;51.074;3.788;2022-11-20T05:43:35;65.43;;;26.05;;
27225;SDS011;14732;51.074;3.788;2022-11-20T05:46:03;67.47;;;26.00;;
27225;SDS011;14732;51.074;3.788;2022-11-20T05:48:30;65.10;;;27.27;;
27225;SDS011;14732;51.074;3.788;2022-11-20T05:50:56;77.95;;;28.48;;
27225;SDS011;14732;51.074;3.788;2022-11-20T05:53:23;63.17;;;26.60;;
27225;SDS011;14732;51.074;3.788;2022-11-20T05:55:59;73.25;;;26.63;;
27225;SDS011;14732;51.074;3.788;2022-11-20T05:58:27;76.25;;;27.85;;
27225;SDS011;14732;51.074;3.788;2022-11-20T06:00:53;79.75;;;28.45;;
27225;SDS011;14732;51.074;3.788;2022-11-20T06:03:18;83.18;;;27.83;;
27225;SDS011;14732;51.074;3.788;2022-11-20T06:05:44;83.38;;;28.23;;
27225;SDS011;14732;51.074;3.788;2022-11-20T06:08:10;77.15;;;27.55;;
27225;SDS011;14732;51.074;3.788;2022-11-20T06:10:36;83.68;;;29.23;;
27225;SDS011;14732;51.074;3.788;2022-11-20T06:13:01;85.05;;;27.48;;
27225;SDS011;14732;51.074;3.788;2022-11-20T06:15:27;65.18;;;25.77;;
27225;SDS011;14732;51.074;3.788;2022-11-20T06:17:53;80.82;;;28.52;;
27225;SDS011;14732;51.074;3.788;2022-11-20T06:20:19;82.40;;;27.83;;
27225;SDS011;14732;51.074;3.788;2022-11-20T06:22:45;85.05;;;27.55;;
27225;SDS011;14732;51.074;3.788;2022-11-20T06:25:11;87.78;;;29.38;;
27225;SDS011;14732;51.074;3.788;2022-11-20T06:27:37;82.30;;;28.30;;
27225;SDS011;14732;51.074;3.788;2022-11-20T06:30:03;92.25;;;28.52;;
27225;SDS011;14732;51.074;3.788;2022-11-20T06:32:29;87.40;;;28.33;;
27225;SDS011;14732;51.074;3.788;2022-11-20T06:34:55;87.57;;;28.48;;
27225;SDS011;14732;51.074;3.788;2022-11-20T06:37:20;90.43;;;28.58;;
27225;SDS011;14732;51.074;3.788;2022-11-20T06:39:46;91.47;;;29.52;;
27225;SDS011;14732;51.074;3.788;2022-11-20T06:42:11;96.45;;;30.10;;
27225;SDS011;14732;51.074;3.788;2022-11-20T06:44:37;84.32;;;27.55;;
27225;SDS011;14732;51.074;3.788;2022-11-20T06:47:03;84.55;;;26.40;;
27225;SDS011;14732;51.074;3.788;2022-11-20T06:49:29;80.68;;;26.88;;
27225;SDS011;14732;51.074;3.788;2022-11-20T06:51:54;95.82;;;29.48;;
27225;SDS011;14732;51.074;3.788;2022-11-20T06:54:20;89.03;;;28.00;;
27225;SDS011;14732;51.074;3.788;2022-11-20T06:56:46;91.32;;;29.50;;
27225;SDS011;14732;51.074;3.788;2022-11-20T06:59:13;88.60;;;28.63;;
27225;SDS011;14732;51.074;3.788;2022-11-20T07:01:38;95.90;;;28.63;;
27225;SDS011;14732;51.074;3.788;2022-11-20T07:04:04;99.55;;;30.65;;
27225;SDS011;14732;51.074;3.788;2022-11-20T07:06:30;111.13;;;39.95;;
27225;SDS011;14732;51.074;3.788;2022-11-20T07:08:55;92.07;;;32.08;;
27225;SDS011;14732;51.074;3.788;2022-11-20T07:11:21;105.80;;;38.30;;
27225;SDS011;14732;51.074;3.788;2022-11-20T07:13:47;98.05;;;38.30;;
27225;SDS011;14732;51.074;3.788;2022-11-20T07:16:12;84.95;;;30.02;;
27225;SDS011;14732;51.074;3.788;2022-11-20T07:18:38;85.22;;;29.50;;
27225;SDS011;14732;51.074;3.788;2022-11-20T07:21:05;88.35;;;29.92;;
27225;SDS011;14732;51.074;3.788;2022-11-20T07:23:32;97.03;;;32.38;;
27225;SDS011;14732;51.074;3.788;2022-11-20T07:25:58;79.35;;;27.92;;
27225;SDS011;14732;51.074;3.788;2022-11-20T07:28:31;81.97;;;26.98;;
27225;SDS011;14732;51.074;3.788;2022-11-20T07:30:57;78.57;;;26.10;;
27225;SDS011;14732;51.074;3.788;2022-11-20T07:33:22;78.53;;;27.35;;
27225;SDS011;14732;51.074;3.788;2022-11-20T07:35:48;80.70;;;28.23;;
27225;SDS011;14732;51.074;3.788;2022-11-20T07:38:14;85.97;;;27.92;;
27225;SDS011;14732;51.074;3.788;2022-11-20T07:40:39;79.72;;;27.20;;
27225;SDS011;14732;51.074;3.788;2022-11-20T07:43:05;77.60;;;26.35;;
27225;SDS011;14732;51.074;3.788;2022-11-20T07:45:31;70.25;;;25.85;;
27225;SDS011;14732;51.074;3.788;2022-11-20T07:47:57;85.13;;;28.08;;
27225;SDS011;14732;51.074;3.788;2022-11-20T07:50:22;82.30;;;29.08;;
27225;SDS011;14732;51.074;3.788;2022-11-20T07:52:48;68.90;;;23.90;;
27225;SDS011;14732;51.074;3.788;2022-11-20T07:55:13;77.43;;;27.02;;
27225;SDS011;14732;51.074;3.788;2022-11-20T07:57:40;79.57;;;26.52;;
27225;SDS011;14732;51.074;3.788;2022-11-20T08:00:06;81.38;;;27.63;;
27225;SDS011;14732;51.074;3.788;2022-11-20T08:02:36;78.07;;;27.20;;
27225;SDS011;14732;51.074;3.788;2022-11-20T08:07:34;72.00;;;25.17;;
27225;SDS011;14732;51.074;3.788;2022-11-20T08:10:10;74.03;;;25.02;;
27225;SDS011;14732;51.074;3.788;2022-11-20T08:12:43;75.75;;;26.10;;
27225;SDS011;14732;51.074;3.788;2022-11-20T08:15:27;73.50;;;25.63;;
27225;SDS011;14732;51.074;3.788;2022-11-20T08:17:59;78.97;;;25.60;;
27225;SDS011;14732;51.074;3.788;2022-11-20T08:20:38;68.57;;;25.20;;
27225;SDS011;14732;51.074;3.788;2022-11-20T08:23:04;67.25;;;24.10;;
27225;SDS011;14732;51.074;3.788;2022-11-20T08:25:32;80.55;;;27.17;;
27225;SDS011;14732;51.074;3.788;2022-11-20T08:27:59;81.22;;;30.92;;
27225;SDS011;14732;51.074;3.788;2022-11-20T08:30:27;81.57;;;28.58;;
27225;SDS011;14732;51.074;3.788;2022-11-20T08:32:53;71.28;;;24.05;;
27225;SDS011;14732;51.074;3.788;2022-11-20T08:35:20;68.15;;;25.13;;
27225;SDS011;14732;51.074;3.788;2022-11-20T08:37:46;68.40;;;24.35;;
27225;SDS011;14732;51.074;3.788;2022-11-20T08:40:13;67.30;;;24.40;;
27225;SDS011;14732;51.074;3.788;2022-11-20T08:42:51;68.45;;;25.25;;
27225;SDS011;14732;51.074;3.788;2022-11-20T08:45:17;73.05;;;24.83;;
27225;SDS011;14732;51.074;3.788;2022-11-20T08:47:44;68.90;;;24.70;;
27225;SDS011;14732;51.074;3.788;2022-11-20T08:50:11;73.10;;;25.95;;
27225;SDS011;14732;51.074;3.788;2022-11-20T08:52:38;71.70;;;24.55;;
27225;SDS011;14732;51.074;3.788;2022-11-20T08:55:04;69.45;;;23.85;;
27225;SDS011;14732;51.074;3.788;2022-11-20T08:57:31;64.68;;;24.23;;
27225;SDS011;14732;51.074;3.788;2022-11-20T08:59:58;73.57;;;24.85;;
27225;SDS011;14732;51.074;3.788;2022-11-20T09:02:24;81.63;;;25.77;;
27225;SDS011;14732;51.074;3.788;2022-11-20T09:04:49;67.80;;;24.52;;
27225;SDS011;14732;51.074;3.788;2022-11-20T09:07:15;72.90;;;24.92;;
27225;SDS011;14732;51.074;3.788;2022-11-20T09:09:41;72.63;;;25.75;;
27225;SDS011;14732;51.074;3.788;2022-11-20T09:12:06;79.43;;;25.02;;
27225;SDS011;14732;51.074;3.788;2022-11-20T09:14:32;70.38;;;24.77;;
27225;SDS011;14732;51.074;3.788;2022-11-20T09:16:58;71.20;;;23.88;;
27225;SDS011;14732;51.074;3.788;2022-11-20T09:19:24;69.03;;;25.60;;
27225;SDS011;14732;51.074;3.788;2022-11-20T09:21:50;66.47;;;23.98;;
27225;SDS011;14732;51.074;3.788;2022-11-20T09:24:16;67.78;;;23.65;;
27225;SDS011;14732;51.074;3.788;2022-11-20T09:26:42;67.68;;;24.45;;
27225;SDS011;14732;51.074;3.788;2022-11-20T09:29:08;77.22;;;24.52;;
27225;SDS011;14732;51.074;3.788;2022-11-20T09:31:33;62.83;;;24.60;;
27225;SDS011;14732;51.074;3.788;2022-11-20T09:33:59;71.75;;;25.38;;
27225;SDS011;14732;51.074;3.788;2022-11-20T09:36:25;63.97;;;22.92;;
27225;SDS011;14732;51.074;3.788;2022-11-20T09:38:51;63.00;;;22.05;;
27225;SDS011;14732;51.074;3.788;2022-11-20T09:44:01;59.75;;;22.00;;
27225;SDS011;14732;51.074;3.788;2022-11-20T09:46:50;53.28;;;20.13;;
27225;SDS011;14732;51.074;3.788;2022-11-20T09:49:32;52.70;;;19.63;;
27225;SDS011;14732;51.074;3.788;2022-11-20T09:54:54;48.83;;;19.73;;
27225;SDS011;14732;51.074;3.788;2022-11-20T09:57:21;52.60;;;20.48;;
27225;SDS011;14732;51.074;3.788;2022-11-20T09:59:59;53.05;;;20.23;;
27225;SDS011;14732;51.074;3.788;2022-11-20T10:02:30;43.28;;;17.13;;
27225;SDS011;14732;51.074;3.788;2022-11-20T10:05:08;38.92;;;17.27;;
27225;SDS011;14732;51.074;3.788;2022-11-20T10:07:51;41.53;;;18.13;;
27225;SDS011;14732;51.074;3.788;2022-11-20T10:10:34;40.33;;;16.77;;
27225;SDS011;14732;51.074;3.788;2022-11-20T10:13:14;42.65;;;16.67;;
27225;SDS011;14732;51.074;3.788;2022-11-20T10:15:57;35.25;;;15.63;;
27225;SDS011;14732;51.074;3.788;2022-11-20T10:26:47;31.30;;;14.80;;
27225;SDS011;14732;51.074;3.788;2022-11-20T10:29:17;32.67;;;13.10;;
27225;SDS011;14732;51.074;3.788;2022-11-20T10:31:56;30.15;;;13.55;;
27225;SDS011;14732;51.074;3.788;2022-11-20T10:34:38;26.95;;;12.73;;
27225;SDS011;14732;51.074;3.788;2022-11-20T10:37:18;22.13;;;11.75;;
27225;SDS011;14732;51.074;3.788;2022-11-20T10:39:53;26.83;;;11.48;;
27225;SDS011;14732;51.074;3.788;2022-11-20T10:42:46;25.50;;;10.80;;
27225;SDS011;14732;51.074;3.788;2022-11-20T10:48:35;24.50;;;10.45;;
27225;SDS011;14732;51.074;3.788;2022-11-20T10:50:43;19.05;;;8.18;;
27225;SDS011;14732;51.074;3.788;2022-11-20T10:53:40;18.63;;;8.55;;
27225;SDS011;14732;51.074;3.788;2022-11-20T11:01:40;14.77;;;7.15;;
27225;SDS011;14732;51.074;3.788;2022-11-20T11:07:06;14.80;;;6.57;;
27225;SDS011;14732;51.074;3.788;2022-11-20T11:09:43;14.18;;;5.85;;
27225;SDS011;14732;51.074;3.788;2022-11-20T11:12:11;11.88;;;5.75;;
27225;SDS011;14732;51.074;3.788;2022-11-20T11:14:47;13.35;;;5.28;;
27225;SDS011;14732;51.074;3.788;2022-11-20T11:17:20;13.05;;;5.60;;
27225;SDS011;14732;51.074;3.788;2022-11-20T11:19:58;11.25;;;4.82;;
27225;SDS011;14732;51.074;3.788;2022-11-20T11:22:58;8.93;;;4.40;;
27225;SDS011;14732;51.074;3.788;2022-11-20T11:27:54;16.27;;;4.60;;
27225;SDS011;14732;51.074;3.788;2022-11-20T11:30:25;9.45;;;4.18;;
27225;SDS011;14732;51.074;3.788;2022-11-20T11:33:02;10.00;;;3.50;;
27225;SDS011;14732;51.074;3.788;2022-11-20T11:35:30;10.15;;;4.45;;
27225;SDS011;14732;51.074;3.788;2022-11-20T11:38:06;12.75;;;3.53;;
27225;SDS011;14732;51.074;3.788;2022-11-20T11:40:37;10.15;;;3.88;;
27225;SDS011;14732;51.074;3.788;2022-11-20T11:43:06;11.55;;;3.47;;
27225;SDS011;14732;51.074;3.788;2022-11-20T11:46:01;8.90;;;3.85;;
27225;SDS011;14732;51.074;3.788;2022-11-20T11:48:26;8.88;;;3.85;;
27225;SDS011;14732;51.074;3.788;2022-11-20T11:50:52;10.60;;;3.83;;
27225;SDS011;14732;51.074;3.788;2022-11-20T11:53:21;6.47;;;3.58;;
27225;SDS011;14732;51.074;3.788;2022-11-20T11:55:56;7.03;;;3.60;;
27225;SDS011;14732;51.074;3.788;2022-11-20T11:58:44;7.50;;;3.58;;
27225;SDS011;14732;51.074;3.788;2022-11-20T12:01:27;8.77;;;3.55;;
27225;SDS011;14732;51.074;3.788;2022-11-20T12:06:42;5.38;;;3.65;;
27225;SDS011;14732;51.074;3.788;2022-11-20T12:09:12;7.30;;;3.53;;
27225;SDS011;14732;51.074;3.788;2022-11-20T12:11:59;8.25;;;3.95;;
27225;SDS011;14732;51.074;3.788;2022-11-20T12:17:01;11.75;;;4.20;;
27225;SDS011;14732;51.074;3.788;2022-11-20T12:19:29;10.50;;;3.75;;
27225;SDS011;14732;51.074;3.788;2022-11-20T12:30:16;9.65;;;3.42;;
27225;SDS011;14732;51.074;3.788;2022-11-20T12:32:53;8.15;;;3.50;;
27225;SDS011;14732;51.074;3.788;2022-11-20T12:38:57;9.80;;;4.10;;
27225;SDS011;14732;51.074;3.788;2022-11-20T12:41:51;5.93;;;3.95;;
27225;SDS011;14732;51.074;3.788;2022-11-20T13:06:46;3.92;;;3.42;;
27225;SDS011;14732;51.074;3.788;2022-11-20T13:09:17;5.88;;;3.55;;
27225;SDS011;14732;51.074;3.788;2022-11-20T13:14:34;9.30;;;4.35;;
27225;SDS011;14732;51.074;3.788;2022-11-20T13:17:11;6.25;;;3.72;;
27225;SDS011;14732;51.074;3.788;2022-11-20T13:19:39;7.18;;;4.10;;
27225;SDS011;14732;51.074;3.788;2022-11-20T13:22:07;4.82;;;3.67;;
27225;SDS011;14732;51.074;3.788;2022-11-20T13:24:34;7.75;;;4.07;;
27225;SDS011;14732;51.074;3.788;2022-11-20T13:29:29;5.38;;;3.80;;
27225;SDS011;14732;51.074;3.788;2022-11-20T13:35:00;5.30;;;3.95;;
27225;SDS011;14732;51.074;3.788;2022-11-20T13:42:39;5.78;;;3.85;;
27225;SDS011;14732;51.074;3.788;2022-11-20T13:45:23;5.95;;;4.10;;
27225;SDS011;14732;51.074;3.788;2022-11-20T13:47:51;4.15;;;3.45;;
27225;SDS011;14732;51.074;3.788;2022-11-20T13:50:18;4.25;;;3.80;;
27225;SDS011;14732;51.074;3.788;2022-11-20T13:58:36;5.22;;;4.18;;
27225;SDS011;14732;51.074;3.788;2022-11-20T14:01:17;4.60;;;3.65;;
27225;SDS011;14732;51.074;3.788;2022-11-20T14:03:51;6.80;;;4.25;;
27225;SDS011;14732;51.074;3.788;2022-11-20T14:08:47;4.05;;;3.55;;
27225;SDS011;14732;51.074;3.788;2022-11-20T14:11:17;5.15;;;3.70;;
27225;SDS011;14732;51.074;3.788;2022-11-20T14:13:56;5.63;;;3.65;;
27225;SDS011;14732;51.074;3.788;2022-11-20T14:16:24;4.25;;;3.70;;
27225;SDS011;14732;51.074;3.788;2022-11-20T14:18:51;4.55;;;3.10;;
27225;SDS011;14732;51.074;3.788;2022-11-20T14:21:28;4.90;;;3.45;;
27225;SDS011;14732;51.074;3.788;2022-11-20T14:24:04;4.80;;;3.20;;
27225;SDS011;14732;51.074;3.788;2022-11-20T14:26:31;5.10;;;3.38;;
27225;SDS011;14732;51.074;3.788;2022-11-20T14:28:57;6.68;;;3.83;;
27225;SDS011;14732;51.074;3.788;2022-11-20T14:31:24;6.32;;;3.97;;
27225;SDS011;14732;51.074;3.788;2022-11-20T14:33:52;3.95;;;3.42;;
27225;SDS011;14732;51.074;3.788;2022-11-20T14:36:22;3.38;;;3.08;;
27225;SDS011;14732;51.074;3.788;2022-11-20T14:38:50;4.32;;;3.63;;
27225;SDS011;14732;51.074;3.788;2022-11-20T14:41:21;4.30;;;3.25;;
27225;SDS011;14732;51.074;3.788;2022-11-20T14:43:56;5.55;;;3.60;;
27225;SDS011;14732;51.074;3.788;2022-11-20T14:46:23;4.50;;;3.53;;
27225;SDS011;14732;51.074;3.788;2022-11-20T14:48:50;5.07;;;3.72;;
27225;SDS011;14732;51.074;3.788;2022-11-20T14:53:51;4.88;;;4.10;;
27225;SDS011;14732;51.074;3.788;2022-11-20T14:56:20;8.90;;;4.35;;
27225;SDS011;14732;51.074;3.788;2022-11-20T14:58:55;8.13;;;4.45;;
27225;SDS011;14732;51.074;3.788;2022-11-20T15:01:31;8.10;;;3.58;;
27225;SDS011;14732;51.074;3.788;2022-11-20T15:04:09;10.02;;;3.83;;
27225;SDS011;14732;51.074;3.788;2022-11-20T15:06:36;6.07;;;3.80;;
27225;SDS011;14732;51.074;3.788;2022-11-20T15:09:03;7.78;;;3.30;;
27225;SDS011;14732;51.074;3.788;2022-11-20T15:11:34;8.57;;;3.25;;
27225;SDS011;14732;51.074;3.788;2022-11-20T15:14:02;9.10;;;2.33;;
27225;SDS011;14732;51.074;3.788;2022-11-20T15:16:29;8.25;;;2.33;;
27225;SDS011;14732;51.074;3.788;2022-11-20T15:18:55;10.32;;;2.35;;
27225;SDS011;14732;51.074;3.788;2022-11-20T15:21:21;15.82;;;2.80;;
27225;SDS011;14732;51.074;3.788;2022-11-20T15:23:47;13.98;;;2.58;;
27225;SDS011;14732;51.074;3.788;2022-11-20T15:26:14;10.57;;;2.90;;
27225;SDS011;14732;51.074;3.788;2022-11-20T15:28:46;15.15;;;3.90;;
27225;SDS011;14732;51.074;3.788;2022-11-20T15:31:13;10.90;;;2.70;;
27225;SDS011;14732;51.074;3.788;2022-11-20T15:33:40;17.90;;;3.05;;
27225;SDS011;14732;51.074;3.788;2022-11-20T15:36:07;7.63;;;2.28;;
27225;SDS011;14732;51.074;3.788;2022-11-20T15:38:34;15.55;;;2.90;;
27225;SDS011;14732;51.074;3.788;2022-11-20T15:41:00;6.43;;;1.98;;
27225;SDS011;14732;51.074;3.788;2022-11-20T15:43:26;17.92;;;2.80;;
27225;SDS011;14732;51.074;3.788;2022-11-20T15:45:53;19.50;;;3.33;;
27225;SDS011;14732;51.074;3.788;2022-11-20T15:48:26;14.85;;;2.42;;
27225;SDS011;14732;51.074;3.788;2022-11-20T15:51:05;18.75;;;2.75;;
27225;SDS011;14732;51.074;3.788;2022-11-20T15:53:41;18.95;;;3.05;;
27225;SDS011;14732;51.074;3.788;2022-11-20T15:56:13;11.02;;;2.63;;
27225;SDS011;14732;51.074;3.788;2022-11-20T15:58:39;16.67;;;3.35;;
27225;SDS011;14732;51.074;3.788;2022-11-20T16:01:09;15.98;;;3.72;;
27225;SDS011;14732;51.074;3.788;2022-11-20T16:03:39;10.13;;;2.63;;
27225;SDS011;14732;51.074;3.788;2022-11-20T16:06:05;20.10;;;2.88;;
27225;SDS011;14732;51.074;3.788;2022-11-20T16:08:31;19.08;;;3.40;;
27225;SDS011;14732;51.074;3.788;2022-11-20T16:10:56;17.05;;;3.22;;
27225;SDS011;14732;51.074;3.788;2022-11-20T16:13:22;18.25;;;3.42;;
27225;SDS011;14732;51.074;3.788;2022-11-20T16:16:09;15.68;;;4.47;;
27225;SDS011;14732;51.074;3.788;2022-11-20T16:18:45;15.02;;;2.78;;